sensor_id;sensor_type;location;lat;lon;timestamp;pressure;altitude;pressure_sealevel;temperature;humidity
78317;BME280;67572;50.930;18.276;2024-03-08T00:00:02;99739.59;;;0.19;79.19
78317;BME280;67572;50.930;18.276;2024-03-08T00:03:14;99738.00;;;0.11;79.11
78317;BME280;67572;50.930;18.276;2024-03-08T00:06:18;99738.38;;;0.40;77.65
78317;BME280;67572;50.930;18.276;2024-03-08T00:09:23;99734.34;;;0.19;77.25
78317;BME280;67572;50.930;18.276;2024-03-08T00:12:26;99742.88;;;0.32;77.20
78317;BME280;67572;50.930;18.276;2024-03-08T00:15:30;99741.03;;;0.36;76.70
78317;BME280;67572;50.930;18.276;2024-03-08T00:18:34;99745.25;;;-0.08;77.82
78317;BME280;67572;50.930;18.276;2024-03-08T00:21:38;99740.84;;;-0.03;78.02
78317;BME280;67572;50.930;18.276;2024-03-08T00:24:42;99737.44;;;-0.10;77.93
78317;BME280;67572;50.930;18.276;2024-03-08T00:27:47;99733.91;;;-0.06;77.72
78317;BME280;67572;50.930;18.276;2024-03-08T00:30:51;99742.47;;;0.04;78.12
78317;BME280;67572;50.930;18.276;2024-03-08T00:33:55;99740.13;;;-0.13;78.22
78317;BME280;67572;50.930;18.276;2024-03-08T00:36:59;99743.78;;;-0.24;78.66
78317;BME280;67572;50.930;18.276;2024-03-08T00:40:04;99741.59;;;-0.52;78.85
78317;BME280;67572;50.930;18.276;2024-03-08T00:43:11;99739.72;;;-0.44;80.25
78317;BME280;67572;50.930;18.276;2024-03-08T00:46:15;99741.13;;;-0.23;80.31
78317;BME280;67572;50.930;18.276;2024-03-08T00:49:19;99735.00;;;-0.20;79.63
78317;BME280;67572;50.930;18.276;2024-03-08T00:52:22;99727.91;;;-0.12;78.82
78317;BME280;67572;50.930;18.276;2024-03-08T00:55:27;99731.03;;;-0.46;79.76
78317;BME280;67572;50.930;18.276;2024-03-08T00:58:31;99731.84;;;-0.42;79.73
78317;BME280;67572;50.930;18.276;2024-03-08T01:01:34;99729.97;;;-0.33;80.13
78317;BME280;67572;50.930;18.276;2024-03-08T01:04:38;99723.06;;;-0.37;79.87
78317;BME280;67572;50.930;18.276;2024-03-08T01:07:41;99721.28;;;-0.35;79.94
78317;BME280;67572;50.930;18.276;2024-03-08T01:10:46;99719.72;;;-0.46;80.16
78317;BME280;67572;50.930;18.276;2024-03-08T01:13:50;99709.09;;;-0.34;80.57
78317;BME280;67572;50.930;18.276;2024-03-08T01:16:53;99715.47;;;-0.53;81.27
78317;BME280;67572;50.930;18.276;2024-03-08T01:19:57;99712.75;;;-0.47;81.21
78317;BME280;67572;50.930;18.276;2024-03-08T01:23:01;99708.34;;;-0.42;81.17
78317;BME280;67572;50.930;18.276;2024-03-08T01:26:06;99705.91;;;-0.54;81.16
78317;BME280;67572;50.930;18.276;2024-03-08T01:29:10;99700.41;;;-0.35;80.58
78317;BME280;67572;50.930;18.276;2024-03-08T01:32:13;99708.41;;;-0.45;80.50
78317;BME280;67572;50.930;18.276;2024-03-08T01:35:17;99705.94;;;-0.56;80.69
78317;BME280;67572;50.930;18.276;2024-03-08T01:38:20;99696.06;;;-0.36;79.76
78317;BME280;67572;50.930;18.276;2024-03-08T01:41:26;99700.50;;;-0.42;79.59
78317;BME280;67572;50.930;18.276;2024-03-08T01:44:32;99691.84;;;-0.44;80.17
78317;BME280;67572;50.930;18.276;2024-03-08T01:47:35;99691.81;;;-0.43;80.72
78317;BME280;67572;50.930;18.276;2024-03-08T01:50:40;99691.22;;;-0.60;80.95
78317;BME280;67572;50.930;18.276;2024-03-08T01:53:46;99687.72;;;-0.62;80.92
78317;BME280;67572;50.930;18.276;2024-03-08T01:56:52;99688.59;;;-0.62;80.92
78317;BME280;67572;50.930;18.276;2024-03-08T01:59:56;99682.31;;;-0.48;81.03
78317;BME280;67572;50.930;18.276;2024-03-08T02:03:00;99682.19;;;-0.41;80.54
78317;BME280;67572;50.930;18.276;2024-03-08T02:06:05;99685.72;;;-0.43;81.19
78317;BME280;67572;50.930;18.276;2024-03-08T02:09:12;99677.63;;;-0.26;80.30
78317;BME280;67572;50.930;18.276;2024-03-08T02:12:17;99675.03;;;-0.28;80.31
78317;BME280;67572;50.930;18.276;2024-03-08T02:15:23;99666.09;;;-0.70;80.12
78317;BME280;67572;50.930;18.276;2024-03-08T02:18:29;99674.13;;;-0.84;81.16
78317;BME280;67572;50.930;18.276;2024-03-08T02:21:34;99672.34;;;-0.80;82.05
78317;BME280;67572;50.930;18.276;2024-03-08T02:24:38;99666.06;;;-0.69;81.47
78317;BME280;67572;50.930;18.276;2024-03-08T02:27:42;99665.19;;;-0.66;81.82
78317;BME280;67572;50.930;18.276;2024-03-08T02:30:46;99654.56;;;-0.56;81.29
78317;BME280;67572;50.930;18.276;2024-03-08T02:33:49;99656.25;;;-0.53;80.87
78317;BME280;67572;50.930;18.276;2024-03-08T02:36:55;99651.25;;;-0.68;80.86
78317;BME280;67572;50.930;18.276;2024-03-08T02:39:59;99654.91;;;-0.78;82.06
78317;BME280;67572;50.930;18.276;2024-03-08T02:43:02;99661.03;;;-0.81;82.09
78317;BME280;67572;50.930;18.276;2024-03-08T02:46:06;99652.59;;;-1.00;82.59
78317;BME280;67572;50.930;18.276;2024-03-08T02:49:10;99651.50;;;-0.85;83.24
78317;BME280;67572;50.930;18.276;2024-03-08T02:52:15;99655.94;;;-0.92;83.12
78317;BME280;67572;50.930;18.276;2024-03-08T02:55:19;99656.44;;;-0.65;82.19
78317;BME280;67572;50.930;18.276;2024-03-08T02:58:25;99646.75;;;-0.57;81.55
78317;BME280;67572;50.930;18.276;2024-03-08T03:01:29;99648.44;;;-0.54;80.45
78317;BME280;67572;50.930;18.276;2024-03-08T03:04:34;99642.53;;;-0.66;80.95
78317;BME280;67572;50.930;18.276;2024-03-08T03:07:39;99653.31;;;-0.89;81.69
78317;BME280;67572;50.930;18.276;2024-03-08T03:10:43;99652.34;;;-0.81;82.67
78317;BME280;67572;50.930;18.276;2024-03-08T03:13:46;99651.63;;;-0.93;83.80
78317;BME280;67572;50.930;18.276;2024-03-08T03:16:50;99658.50;;;-0.87;83.63
78317;BME280;67572;50.930;18.276;2024-03-08T03:19:54;99656.13;;;-1.02;83.70
78317;BME280;67572;50.930;18.276;2024-03-08T03:22:59;99653.47;;;-1.01;83.58
78317;BME280;67572;50.930;18.276;2024-03-08T03:26:06;99659.59;;;-1.03;84.48
78317;BME280;67572;50.930;18.276;2024-03-08T03:29:10;99654.41;;;-1.06;84.76
78317;BME280;67572;50.930;18.276;2024-03-08T03:32:13;99658.81;;;-1.10;84.91
78317;BME280;67572;50.930;18.276;2024-03-08T03:35:17;99658.88;;;-1.13;84.70
78317;BME280;67572;50.930;18.276;2024-03-08T03:38:24;99653.53;;;-1.04;84.47
78317;BME280;67572;50.930;18.276;2024-03-08T03:41:33;99655.00;;;-0.86;83.26
78317;BME280;67572;50.930;18.276;2024-03-08T03:44:36;99659.44;;;-0.90;82.50
78317;BME280;67572;50.930;18.276;2024-03-08T03:47:39;99665.69;;;-1.03;82.24
78317;BME280;67572;50.930;18.276;2024-03-08T03:50:43;99661.69;;;-0.68;82.49
78317;BME280;67572;50.930;18.276;2024-03-08T03:53:48;99649.88;;;-0.92;81.99
78317;BME280;67572;50.930;18.276;2024-03-08T03:56:51;99645.91;;;-1.22;82.64
78317;BME280;67572;50.930;18.276;2024-03-08T03:59:55;99643.31;;;-1.21;83.69
78317;BME280;67572;50.930;18.276;2024-03-08T04:03:00;99649.28;;;-1.11;83.54
78317;BME280;67572;50.930;18.276;2024-03-08T04:06:04;99647.00;;;-1.38;84.49
78317;BME280;67572;50.930;18.276;2024-03-08T04:09:09;99644.28;;;-1.29;84.72
78317;BME280;67572;50.930;18.276;2024-03-08T04:12:13;99649.50;;;-1.29;84.63
78317;BME280;67572;50.930;18.276;2024-03-08T04:15:17;99645.13;;;-1.29;85.45
78317;BME280;67572;50.930;18.276;2024-03-08T04:18:21;99636.25;;;-1.13;84.04
78317;BME280;67572;50.930;18.276;2024-03-08T04:21:25;99636.22;;;-1.11;84.44
78317;BME280;67572;50.930;18.276;2024-03-08T04:24:31;99639.06;;;-1.28;84.17
78317;BME280;67572;50.930;18.276;2024-03-08T04:27:36;99645.13;;;-1.26;84.31
78317;BME280;67572;50.930;18.276;2024-03-08T04:30:40;99646.75;;;-1.17;83.93
78317;BME280;67572;50.930;18.276;2024-03-08T04:33:45;99642.44;;;-1.21;83.66
78317;BME280;67572;50.930;18.276;2024-03-08T04:36:48;99647.75;;;-1.29;83.60
78317;BME280;67572;50.930;18.276;2024-03-08T04:39:53;99650.53;;;-1.43;84.85
78317;BME280;67572;50.930;18.276;2024-03-08T04:42:59;99646.09;;;-1.34;85.75
78317;BME280;67572;50.930;18.276;2024-03-08T04:46:03;99647.00;;;-1.38;86.40
78317;BME280;67572;50.930;18.276;2024-03-08T04:49:07;99645.25;;;-1.38;85.73
78317;BME280;67572;50.930;18.276;2024-03-08T04:52:13;99640.06;;;-1.40;85.18
78317;BME280;67572;50.930;18.276;2024-03-08T04:55:18;99651.91;;;-1.14;84.60
78317;BME280;67572;50.930;18.276;2024-03-08T04:58:25;99650.53;;;-1.41;84.59
78317;BME280;67572;50.930;18.276;2024-03-08T05:01:29;99649.94;;;-1.64;85.36
78317;BME280;67572;50.930;18.276;2024-03-08T05:04:32;99648.97;;;-1.59;85.38
78317;BME280;67572;50.930;18.276;2024-03-08T05:07:36;99649.94;;;-1.66;86.37
78317;BME280;67572;50.930;18.276;2024-03-08T05:10:41;99650.50;;;-1.40;85.32
78317;BME280;67572;50.930;18.276;2024-03-08T05:13:44;99656.25;;;-1.15;84.89
78317;BME280;67572;50.930;18.276;2024-03-08T05:16:48;99651.63;;;-0.93;83.40
78317;BME280;67572;50.930;18.276;2024-03-08T05:19:51;99651.91;;;-1.13;82.78
78317;BME280;67572;50.930;18.276;2024-03-08T05:22:56;99647.22;;;-0.88;82.49
78317;BME280;67572;50.930;18.276;2024-03-08T05:26:02;99646.63;;;-1.09;81.87
78317;BME280;67572;50.930;18.276;2024-03-08T05:29:09;99646.13;;;-1.37;82.05
78317;BME280;67572;50.930;18.276;2024-03-08T05:32:12;99645.13;;;-1.26;82.72
78317;BME280;67572;50.930;18.276;2024-03-08T05:35:16;99647.66;;;-1.23;82.62
78317;BME280;67572;50.930;18.276;2024-03-08T05:38:21;99651.03;;;-1.15;82.59
78317;BME280;67572;50.930;18.276;2024-03-08T05:41:26;99656.16;;;-1.07;83.02
78317;BME280;67572;50.930;18.276;2024-03-08T05:44:29;99656.19;;;-0.48;80.52
78317;BME280;67572;50.930;18.276;2024-03-08T05:47:34;99654.41;;;-0.45;79.44
78317;BME280;67572;50.930;18.276;2024-03-08T05:50:38;99651.44;;;-0.25;79.00
78317;BME280;67572;50.930;18.276;2024-03-08T05:53:42;99651.91;;;-0.54;78.92
78317;BME280;67572;50.930;18.276;2024-03-08T05:56:47;99654.31;;;-0.40;78.45
78317;BME280;67572;50.930;18.276;2024-03-08T05:59:50;99659.84;;;-0.08;78.54
78317;BME280;67572;50.930;18.276;2024-03-08T06:02:54;99659.38;;;-0.31;78.14
78317;BME280;67572;50.930;18.276;2024-03-08T06:05:58;99652.78;;;-0.52;77.83
78317;BME280;67572;50.930;18.276;2024-03-08T06:09:01;99656.13;;;-0.44;79.07
78317;BME280;67572;50.930;18.276;2024-03-08T06:12:13;99656.25;;;-0.53;79.04
78317;BME280;67572;50.930;18.276;2024-03-08T06:15:21;99656.13;;;-0.44;79.58
78317;BME280;67572;50.930;18.276;2024-03-08T06:18:25;99663.63;;;-0.24;79.60
78317;BME280;67572;50.930;18.276;2024-03-08T06:21:29;99663.81;;;0.15;78.31
78317;BME280;67572;50.930;18.276;2024-03-08T06:24:32;99664.72;;;0.15;77.27
78317;BME280;67572;50.930;18.276;2024-03-08T06:27:39;99671.34;;;0.33;77.14
78317;BME280;67572;50.930;18.276;2024-03-08T06:30:45;99664.22;;;0.41;76.54
78317;BME280;67572;50.930;18.276;2024-03-08T06:33:48;99670.09;;;0.08;76.12
78317;BME280;67572;50.930;18.276;2024-03-08T06:36:52;99665.63;;;0.13;77.01
78317;BME280;67572;50.930;18.276;2024-03-08T06:40:04;99659.97;;;0.36;76.54
78317;BME280;67572;50.930;18.276;2024-03-08T06:43:11;99666.31;;;0.24;77.29
78317;BME280;67572;50.930;18.276;2024-03-08T06:46:18;99669.66;;;0.29;76.82
78317;BME280;67572;50.930;18.276;2024-03-08T06:49:23;99667.91;;;0.31;77.20
78317;BME280;67572;50.930;18.276;2024-03-08T06:52:28;99670.63;;;0.25;77.75
78317;BME280;67572;50.930;18.276;2024-03-08T06:55:32;99666.75;;;0.44;77.48
78317;BME280;67572;50.930;18.276;2024-03-08T06:58:37;99669.38;;;0.46;77.82
78317;BME280;67572;50.930;18.276;2024-03-08T07:01:40;99662.66;;;0.33;77.32
78317;BME280;67572;50.930;18.276;2024-03-08T07:04:44;99658.41;;;0.25;78.10
78317;BME280;67572;50.930;18.276;2024-03-08T07:07:47;99660.34;;;0.62;77.82
78317;BME280;67572;50.930;18.276;2024-03-08T07:10:51;99659.31;;;0.69;76.66
78317;BME280;67572;50.930;18.276;2024-03-08T07:13:56;99661.81;;;0.74;76.87
78317;BME280;67572;50.930;18.276;2024-03-08T07:17:00;99659.13;;;0.78;76.69
78317;BME280;67572;50.930;18.276;2024-03-08T07:20:07;99654.91;;;0.71;76.89
78317;BME280;67572;50.930;18.276;2024-03-08T07:23:14;99655.69;;;0.76;76.77
78317;BME280;67572;50.930;18.276;2024-03-08T07:26:38;99665.81;;;1.32;76.50
78317;BME280;67572;50.930;18.276;2024-03-08T07:29:43;99660.69;;;1.64;75.54
78317;BME280;67572;50.930;18.276;2024-03-08T07:32:48;99656.97;;;1.37;75.79
78317;BME280;67572;50.930;18.276;2024-03-08T07:35:57;99662.56;;;1.21;75.73
78317;BME280;67572;50.930;18.276;2024-03-08T07:39:02;99663.47;;;1.20;75.28
78317;BME280;67572;50.930;18.276;2024-03-08T07:42:10;99662.47;;;1.25;74.46
78317;BME280;67572;50.930;18.276;2024-03-08T07:45:16;99660.19;;;1.10;73.87
78317;BME280;67572;50.930;18.276;2024-03-08T07:48:20;99657.97;;;0.92;75.28
78317;BME280;67572;50.930;18.276;2024-03-08T07:51:24;99664.78;;;1.00;75.49
78317;BME280;67572;50.930;18.276;2024-03-08T07:54:29;99657.31;;;1.21;74.80
78317;BME280;67572;50.930;18.276;2024-03-08T07:57:33;99660.63;;;1.66;74.09
78317;BME280;67572;50.930;18.276;2024-03-08T08:00:38;99666.94;;;1.20;74.15
78317;BME280;67572;50.930;18.276;2024-03-08T08:03:45;99660.59;;;1.69;72.85
78317;BME280;67572;50.930;18.276;2024-03-08T08:06:51;99661.66;;;1.60;73.15
78317;BME280;67572;50.930;18.276;2024-03-08T08:09:54;99673.09;;;1.56;72.86
78317;BME280;67572;50.930;18.276;2024-03-08T08:12:59;99663.72;;;1.48;72.74
78317;BME280;67572;50.930;18.276;2024-03-08T08:20:39;99654.88;;;1.87;71.36
78317;BME280;67572;50.930;18.276;2024-03-08T08:23:42;99651.44;;;1.85;71.43
78317;BME280;67572;50.930;18.276;2024-03-08T08:26:48;99644.91;;;1.66;71.16
78317;BME280;67572;50.930;18.276;2024-03-08T08:29:53;99650.56;;;1.85;71.33
78317;BME280;67572;50.930;18.276;2024-03-08T08:32:58;99649.03;;;2.12;71.24
78317;BME280;67572;50.930;18.276;2024-03-08T08:36:12;99641.22;;;2.09;70.74
78317;BME280;67572;50.930;18.276;2024-03-08T08:39:45;99645.56;;;2.10;70.35
78317;BME280;67572;50.930;18.276;2024-03-08T08:42:49;99641.47;;;2.00;70.14
78317;BME280;67572;50.930;18.276;2024-03-08T08:45:55;99642.41;;;2.30;69.12
78317;BME280;67572;50.930;18.276;2024-03-08T08:48:58;99645.44;;;2.14;69.97
78317;BME280;67572;50.930;18.276;2024-03-08T08:52:04;99640.44;;;2.69;69.52
78317;BME280;67572;50.930;18.276;2024-03-08T08:55:17;99631.88;;;2.31;69.27
78317;BME280;67572;50.930;18.276;2024-03-08T08:58:26;99629.19;;;2.65;69.38
78317;BME280;67572;50.930;18.276;2024-03-08T09:01:30;99621.75;;;3.09;67.88
78317;BME280;67572;50.930;18.276;2024-03-08T09:04:34;99610.97;;;3.18;67.09
78317;BME280;67572;50.930;18.276;2024-03-08T09:07:40;99622.59;;;2.82;66.86
78317;BME280;67572;50.930;18.276;2024-03-08T09:10:43;99620.53;;;2.62;66.08
78317;BME280;67572;50.930;18.276;2024-03-08T09:13:50;99621.31;;;2.95;66.64
78317;BME280;67572;50.930;18.276;2024-03-08T09:16:55;99617.28;;;2.83;66.16
78317;BME280;67572;50.930;18.276;2024-03-08T09:20:00;99620.66;;;3.44;66.46
78317;BME280;67572;50.930;18.276;2024-03-08T09:23:06;99605.97;;;3.37;65.38
78317;BME280;67572;50.930;18.276;2024-03-08T09:26:10;99610.06;;;3.46;64.95
78317;BME280;67572;50.930;18.276;2024-03-08T09:29:26;99604.22;;;3.38;64.67
78317;BME280;67572;50.930;18.276;2024-03-08T09:32:31;99600.06;;;3.02;64.70
78317;BME280;67572;50.930;18.276;2024-03-08T09:35:35;99602.28;;;3.69;64.52
78317;BME280;67572;50.930;18.276;2024-03-08T09:38:40;99601.25;;;4.00;63.53
78317;BME280;67572;50.930;18.276;2024-03-08T09:41:45;99597.94;;;3.68;63.54
78317;BME280;67572;50.930;18.276;2024-03-08T09:44:50;99593.94;;;4.09;63.15
78317;BME280;67572;50.930;18.276;2024-03-08T09:47:55;99591.25;;;4.11;61.65
78317;BME280;67572;50.930;18.276;2024-03-08T09:51:02;99590.91;;;4.20;61.23
78317;BME280;67572;50.930;18.276;2024-03-08T09:54:13;99583.75;;;3.99;61.12
78317;BME280;67572;50.930;18.276;2024-03-08T09:57:25;99575.19;;;4.18;61.57
78317;BME280;67572;50.930;18.276;2024-03-08T10:00:29;99574.81;;;4.53;60.25
78317;BME280;67572;50.930;18.276;2024-03-08T10:03:33;99582.53;;;4.34;60.23
78317;BME280;67572;50.930;18.276;2024-03-08T10:06:36;99577.09;;;4.38;60.70
78317;BME280;67572;50.930;18.276;2024-03-08T10:09:42;99568.22;;;4.64;59.77
78317;BME280;67572;50.930;18.276;2024-03-08T10:12:51;99564.00;;;5.49;58.25
78317;BME280;67572;50.930;18.276;2024-03-08T10:15:56;99568.59;;;5.00;58.17
78317;BME280;67572;50.930;18.276;2024-03-08T10:19:00;99567.19;;;5.14;59.99
78317;BME280;67572;50.930;18.276;2024-03-08T10:22:14;99564.44;;;5.39;59.22
78317;BME280;67572;50.930;18.276;2024-03-08T10:25:19;99561.25;;;5.95;58.46
78317;BME280;67572;50.930;18.276;2024-03-08T10:28:23;99563.03;;;5.94;58.06
78317;BME280;67572;50.930;18.276;2024-03-08T10:31:27;99562.97;;;5.53;57.43
78317;BME280;67572;50.930;18.276;2024-03-08T10:34:31;99565.56;;;5.75;58.34
78317;BME280;67572;50.930;18.276;2024-03-08T10:37:44;99556.91;;;6.33;56.68
78317;BME280;67572;50.930;18.276;2024-03-08T10:40:51;99558.88;;;6.09;56.62
78317;BME280;67572;50.930;18.276;2024-03-08T10:44:14;99564.78;;;6.74;55.70
78317;BME280;67572;50.930;18.276;2024-03-08T10:47:26;99555.41;;;7.04;56.05
78317;BME280;67572;50.930;18.276;2024-03-08T10:50:33;99556.72;;;6.37;55.31
78317;BME280;67572;50.930;18.276;2024-03-08T10:53:39;99558.19;;;7.01;54.12
78317;BME280;67572;50.930;18.276;2024-03-08T10:56:45;99540.53;;;7.38;54.50
78317;BME280;67572;50.930;18.276;2024-03-08T10:59:55;99553.56;;;7.60;52.46
78317;BME280;67572;50.930;18.276;2024-03-08T11:03:00;99543.34;;;7.35;54.60
78317;BME280;67572;50.930;18.276;2024-03-08T11:06:06;99543.94;;;8.11;51.65
78317;BME280;67572;50.930;18.276;2024-03-08T11:09:28;99549.31;;;7.57;51.58
78317;BME280;67572;50.930;18.276;2024-03-08T11:12:37;99537.59;;;8.13;51.86
78317;BME280;67572;50.930;18.276;2024-03-08T11:15:42;99543.63;;;8.17;50.05
78317;BME280;67572;50.930;18.276;2024-03-08T11:18:47;99537.81;;;8.26;49.59
78317;BME280;67572;50.930;18.276;2024-03-08T11:22:01;99532.50;;;8.43;50.46
78317;BME280;67572;50.930;18.276;2024-03-08T11:25:08;99533.66;;;8.55;50.27
78317;BME280;67572;50.930;18.276;2024-03-08T11:28:17;99520.38;;;8.22;49.77
78317;BME280;67572;50.930;18.276;2024-03-08T11:31:25;99521.16;;;8.24;50.43
78317;BME280;67572;50.930;18.276;2024-03-08T11:34:31;99519.03;;;8.30;50.06
78317;BME280;67572;50.930;18.276;2024-03-08T11:37:36;99516.94;;;8.70;48.07
78317;BME280;67572;50.930;18.276;2024-03-08T11:40:40;99508.78;;;8.73;48.48
78317;BME280;67572;50.930;18.276;2024-03-08T11:43:45;99506.31;;;9.17;48.57
78317;BME280;67572;50.930;18.276;2024-03-08T11:46:49;99500.16;;;8.54;46.99
78317;BME280;67572;50.930;18.276;2024-03-08T11:49:53;99493.22;;;8.99;47.19
78317;BME280;67572;50.930;18.276;2024-03-08T11:53:00;99497.00;;;8.95;48.61
78317;BME280;67572;50.930;18.276;2024-03-08T11:56:07;99492.72;;;8.92;46.67
78317;BME280;67572;50.930;18.276;2024-03-08T11:59:15;99496.69;;;9.47;47.13
78317;BME280;67572;50.930;18.276;2024-03-08T12:02:19;99484.84;;;9.52;47.41
78317;BME280;67572;50.930;18.276;2024-03-08T12:05:23;99478.25;;;8.98;45.63
78317;BME280;67572;50.930;18.276;2024-03-08T12:08:26;99478.66;;;9.06;45.20
78317;BME280;67572;50.930;18.276;2024-03-08T12:11:32;99475.47;;;9.31;45.74
78317;BME280;67572;50.930;18.276;2024-03-08T12:14:38;99478.56;;;9.83;46.67
78317;BME280;67572;50.930;18.276;2024-03-08T12:17:44;99473.72;;;9.45;45.96
78317;BME280;67572;50.930;18.276;2024-03-08T12:20:51;99470.19;;;9.31;44.62
78317;BME280;67572;50.930;18.276;2024-03-08T12:24:05;99468.16;;;10.09;44.94
78317;BME280;67572;50.930;18.276;2024-03-08T12:27:20;99455.19;;;10.47;44.36
78317;BME280;67572;50.930;18.276;2024-03-08T12:30:26;99448.81;;;10.49;44.12
78317;BME280;67572;50.930;18.276;2024-03-08T12:33:30;99446.16;;;10.07;42.90
78317;BME280;67572;50.930;18.276;2024-03-08T12:36:34;99443.94;;;10.56;42.44
78317;BME280;67572;50.930;18.276;2024-03-08T12:39:53;99437.13;;;10.66;41.61
78317;BME280;67572;50.930;18.276;2024-03-08T12:43:14;99435.16;;;11.09;41.99
78317;BME280;67572;50.930;18.276;2024-03-08T12:46:20;99432.94;;;11.43;42.20
78317;BME280;67572;50.930;18.276;2024-03-08T12:49:24;99429.25;;;10.92;41.26
78317;BME280;67572;50.930;18.276;2024-03-08T12:52:29;99420.56;;;10.75;41.33
78317;BME280;67572;50.930;18.276;2024-03-08T12:55:32;99427.00;;;11.25;41.25
78317;BME280;67572;50.930;18.276;2024-03-08T12:58:38;99415.78;;;10.80;42.09
78317;BME280;67572;50.930;18.276;2024-03-08T13:01:44;99413.63;;;11.00;42.03
78317;BME280;67572;50.930;18.276;2024-03-08T13:04:50;99405.59;;;10.60;41.06
78317;BME280;67572;50.930;18.276;2024-03-08T13:07:59;99413.16;;;11.20;41.36
78317;BME280;67572;50.930;18.276;2024-03-08T13:11:03;99413.09;;;11.34;38.88
78317;BME280;67572;50.930;18.276;2024-03-08T13:14:07;99401.66;;;11.98;37.99
78317;BME280;67572;50.930;18.276;2024-03-08T13:17:13;99408.59;;;11.22;38.64
78317;BME280;67572;50.930;18.276;2024-03-08T13:20:17;99395.00;;;11.00;39.30
78317;BME280;67572;50.930;18.276;2024-03-08T13:23:31;99398.47;;;12.05;39.41
78317;BME280;67572;50.930;18.276;2024-03-08T13:26:35;99403.47;;;11.72;38.94
78317;BME280;67572;50.930;18.276;2024-03-08T13:29:39;99400.66;;;11.48;37.99
78317;BME280;67572;50.930;18.276;2024-03-08T13:32:44;99388.09;;;11.75;37.16
78317;BME280;67572;50.930;18.276;2024-03-08T13:35:48;99384.09;;;11.95;37.08
78317;BME280;67572;50.930;18.276;2024-03-08T13:38:52;99384.41;;;11.13;38.55
78317;BME280;67572;50.930;18.276;2024-03-08T13:41:56;99393.31;;;11.51;38.97
78317;BME280;67572;50.930;18.276;2024-03-08T13:45:00;99374.25;;;12.08;38.00
78317;BME280;67572;50.930;18.276;2024-03-08T13:48:06;99379.06;;;11.65;37.45
78317;BME280;67572;50.930;18.276;2024-03-08T13:51:09;99375.25;;;11.94;36.77
78317;BME280;67572;50.930;18.276;2024-03-08T13:54:14;99361.88;;;11.69;37.41
78317;BME280;67572;50.930;18.276;2024-03-08T13:57:19;99367.53;;;11.52;37.69
78317;BME280;67572;50.930;18.276;2024-03-08T14:00:24;99368.59;;;11.62;38.12
78317;BME280;67572;50.930;18.276;2024-03-08T14:03:31;99357.34;;;11.97;37.17
78317;BME280;67572;50.930;18.276;2024-03-08T14:06:35;99371.25;;;11.62;38.16
78317;BME280;67572;50.930;18.276;2024-03-08T14:09:39;99361.47;;;11.50;37.89
78317;BME280;67572;50.930;18.276;2024-03-08T14:12:45;99355.28;;;11.75;37.55
78317;BME280;67572;50.930;18.276;2024-03-08T14:15:51;99354.97;;;11.92;38.94
78317;BME280;67572;50.930;18.276;2024-03-08T14:18:56;99351.25;;;12.68;37.57
78317;BME280;67572;50.930;18.276;2024-03-08T14:22:03;99349.06;;;12.25;38.06
78317;BME280;67572;50.930;18.276;2024-03-08T14:25:07;99354.84;;;11.30;40.99
78317;BME280;67572;50.930;18.276;2024-03-08T14:28:19;99347.38;;;11.22;42.10
